createdAt,value
2019-02-09T00:01:09.193Z,7.70
2019-02-09T00:02:13.629Z,7.80
2019-02-09T00:03:19.409Z,7.80
2019-02-09T00:04:23.859Z,7.80
2019-02-09T00:05:28.217Z,7.70
2019-02-09T00:06:32.609Z,7.80
2019-02-09T00:07:37.192Z,7.70
2019-02-09T00:08:41.728Z,7.70
2019-02-09T00:09:46.704Z,7.70
2019-02-09T00:10:51.183Z,7.70
2019-02-09T00:11:55.869Z,7.70
2019-02-09T00:13:00.349Z,7.70
2019-02-09T00:14:05.037Z,7.70
2019-02-09T00:15:09.759Z,7.70
2019-02-09T00:16:14.194Z,7.70
2019-02-09T00:17:19.197Z,7.60
2019-02-09T00:18:24.242Z,7.60
2019-02-09T00:19:29.312Z,7.60
2019-02-09T00:20:34.282Z,7.60
2019-02-09T00:21:39.199Z,7.60
2019-02-09T00:22:44.029Z,7.60
2019-02-09T00:23:49.199Z,7.60
2019-02-09T00:24:54.303Z,7.60
2019-02-09T00:25:59.078Z,7.60
2019-02-09T00:27:07.158Z,7.60
2019-02-09T00:28:15.235Z,7.60
2019-02-09T00:29:20.480Z,7.60
2019-02-09T00:30:28.324Z,7.60
2019-02-09T00:31:33.164Z,7.60
2019-02-09T00:32:37.781Z,7.50
2019-02-09T00:33:42.127Z,7.60
2019-02-09T00:34:47.749Z,7.60
2019-02-09T00:35:52.113Z,7.50
2019-02-09T00:36:56.464Z,7.50
2019-02-09T00:38:00.947Z,7.50
2019-02-09T00:39:07.510Z,7.50
2019-02-09T00:40:12.225Z,7.50
2019-02-09T00:41:16.924Z,7.50
2019-02-09T00:42:21.273Z,7.50
2019-02-09T00:43:25.861Z,7.50
2019-02-09T00:44:30.236Z,7.50
2019-02-09T00:45:34.981Z,7.40
2019-02-09T00:46:39.335Z,7.50
2019-02-09T00:47:43.713Z,7.40
2019-02-09T00:48:48.115Z,7.50
2019-02-09T00:49:52.522Z,7.50
2019-02-09T00:50:56.865Z,7.40
2019-02-09T00:52:01.306Z,7.50
2019-02-09T00:53:06.209Z,7.50
2019-02-09T00:54:10.651Z,7.50
2019-02-09T00:55:15.710Z,7.50
2019-02-09T00:56:20.096Z,7.50
2019-02-09T00:57:24.528Z,7.50
2019-02-09T00:58:31.945Z,7.50
2019-02-09T00:59:36.350Z,7.50
2019-02-09T01:00:41.355Z,7.50
2019-02-09T01:01:45.847Z,7.50
2019-02-09T01:02:50.178Z,7.50
2019-02-09T01:03:54.546Z,7.50
2019-02-09T01:04:58.937Z,7.50
2019-02-09T01:06:03.297Z,7.50
2019-02-09T01:07:07.738Z,7.50
2019-02-09T01:08:14.780Z,7.50
2019-02-09T01:09:19.197Z,7.50
2019-02-09T01:10:28.004Z,7.50
2019-02-09T01:11:32.520Z,7.50
2019-02-09T01:12:36.929Z,7.50
2019-02-09T01:13:41.272Z,7.40
2019-02-09T01:14:45.777Z,7.40
2019-02-09T01:15:50.135Z,7.40
2019-02-09T01:16:54.609Z,7.50
2019-02-09T01:17:59.097Z,7.40
2019-02-09T01:19:03.698Z,7.40
2019-02-09T01:20:10.010Z,7.40
2019-02-09T01:21:14.525Z,7.40
2019-02-09T01:22:18.873Z,7.40
2019-02-09T01:23:23.335Z,7.40
2019-02-09T01:24:28.015Z,7.40
2019-02-09T01:25:32.445Z,7.40
2019-02-09T01:26:36.856Z,7.40
2019-02-09T01:27:41.214Z,7.40
2019-02-09T01:28:45.636Z,7.40
2019-02-09T01:29:49.961Z,7.30
2019-02-09T01:30:54.307Z,7.40
2019-02-09T01:31:58.781Z,7.30
2019-02-09T01:33:06.085Z,7.40
2019-02-09T01:34:10.529Z,7.30
2019-02-09T01:35:15.852Z,7.30
2019-02-09T01:36:20.302Z,7.30
2019-02-09T01:37:24.747Z,7.30
2019-02-09T01:38:29.288Z,7.30
2019-02-09T01:39:33.643Z,7.30
2019-02-09T01:40:38.090Z,7.30
2019-02-09T01:41:42.688Z,7.30
2019-02-09T01:42:47.126Z,7.30
2019-02-09T01:43:51.514Z,7.30
2019-02-09T01:44:55.912Z,7.30
2019-02-09T01:46:00.443Z,7.30
2019-02-09T01:47:05.324Z,7.30
2019-02-09T01:48:09.784Z,7.30
2019-02-09T01:49:15.321Z,7.40
2019-02-09T01:50:20.148Z,7.40
2019-02-09T01:51:24.554Z,7.40
2019-02-09T01:52:32.097Z,7.40
2019-02-09T01:53:36.424Z,7.50
2019-02-09T01:54:40.761Z,7.40
2019-02-09T01:55:45.227Z,7.40
2019-02-09T01:56:49.607Z,7.40
2019-02-09T01:57:53.913Z,7.40
2019-02-09T01:59:03.348Z,7.50
2019-02-09T02:00:32.538Z,7.50
2019-02-09T02:01:36.928Z,7.50
2019-02-09T02:02:41.407Z,7.50
2019-02-09T02:03:45.794Z,7.50
2019-02-09T02:04:50.287Z,7.50
2019-02-09T02:05:54.614Z,7.50
2019-02-09T02:06:59.088Z,7.50
2019-02-09T02:08:03.477Z,7.50
2019-02-09T02:09:09.068Z,7.50
2019-02-09T02:10:20.398Z,7.50
2019-02-09T02:11:24.849Z,7.50
2019-02-09T02:12:29.423Z,7.60
2019-02-09T02:13:33.789Z,7.50
2019-02-09T02:14:38.174Z,7.50
2019-02-09T02:15:42.735Z,7.50
2019-02-09T02:16:47.238Z,7.50
2019-02-09T02:17:52.002Z,7.50
2019-02-09T02:18:56.456Z,7.50
2019-02-09T02:20:00.795Z,7.50
2019-02-09T02:21:05.436Z,7.40
2019-02-09T02:22:09.854Z,7.40
2019-02-09T02:23:14.271Z,7.40
2019-02-09T02:24:18.727Z,7.40
2019-02-09T02:26:31.382Z,7.30
2019-02-09T02:27:36.026Z,7.30
2019-02-09T02:28:40.428Z,7.30
2019-02-09T02:29:44.947Z,7.30
2019-02-09T02:30:49.414Z,7.30
2019-02-09T02:31:53.814Z,7.30
2019-02-09T02:32:58.669Z,7.30
2019-02-09T02:34:03.217Z,7.30
2019-02-09T02:35:08.141Z,7.30
2019-02-09T02:36:12.550Z,7.30
2019-02-09T02:37:16.993Z,7.30
2019-02-09T02:38:21.513Z,7.30
2019-02-09T02:39:26.209Z,7.30
2019-02-09T02:40:30.857Z,7.30
2019-02-09T02:41:35.334Z,7.30
2019-02-09T02:42:39.753Z,7.30
2019-02-09T02:43:44.436Z,7.30
2019-02-09T02:44:48.903Z,7.30
2019-02-09T02:45:53.499Z,7.20
2019-02-09T02:46:57.929Z,7.20
2019-02-09T02:48:02.445Z,7.20
2019-02-09T02:49:06.906Z,7.20
2019-02-09T02:50:13.554Z,7.20
2019-02-09T02:51:18.099Z,7.20
2019-02-09T02:52:25.869Z,7.20
2019-02-09T02:53:30.288Z,7.20
2019-02-09T02:54:34.788Z,7.30
2019-02-09T02:55:39.165Z,7.30
2019-02-09T02:56:43.687Z,7.30
2019-02-09T02:57:48.127Z,7.30
2019-02-09T02:58:53.872Z,7.30
2019-02-09T02:59:58.300Z,7.30
2019-02-09T03:01:02.723Z,7.30
2019-02-09T03:02:07.287Z,7.30
2019-02-09T03:03:11.849Z,7.40
2019-02-09T03:04:16.483Z,7.40
2019-02-09T03:05:21.729Z,7.40
2019-02-09T03:06:26.133Z,7.40
2019-02-09T03:07:30.515Z,7.40
2019-02-09T03:08:34.924Z,7.40
2019-02-09T03:09:39.479Z,7.40
2019-02-09T03:10:43.966Z,7.50
2019-02-09T03:11:48.388Z,7.50
2019-02-09T03:12:53.645Z,7.50
2019-02-09T03:13:58.085Z,7.50
2019-02-09T03:15:02.535Z,7.50
2019-02-09T03:16:07.040Z,7.40
2019-02-09T03:17:12.706Z,7.40
2019-02-09T03:18:17.129Z,7.40
2019-02-09T03:19:21.540Z,7.40
2019-02-09T03:20:25.997Z,7.40
2019-02-09T03:21:30.415Z,7.30
2019-02-09T03:22:34.760Z,7.30
2019-02-09T03:23:39.157Z,7.30
2019-02-09T03:24:43.549Z,7.30
2019-02-09T03:25:47.956Z,7.30
2019-02-09T03:26:52.321Z,7.40
2019-02-09T03:27:56.763Z,7.40
2019-02-09T03:29:01.171Z,7.40
2019-02-09T03:30:07.248Z,7.30
2019-02-09T03:31:11.843Z,7.30
2019-02-09T03:32:16.349Z,7.30
2019-02-09T03:33:20.692Z,7.30
2019-02-09T03:34:25.267Z,7.30
2019-02-09T03:35:29.868Z,7.40
2019-02-09T03:36:34.279Z,7.40
2019-02-09T03:37:38.697Z,7.30
2019-02-09T03:38:43.209Z,7.40
2019-02-09T03:39:47.625Z,7.40
2019-02-09T03:40:52.054Z,7.40
2019-02-09T03:41:56.430Z,7.40
2019-02-09T03:43:00.779Z,7.40
2019-02-09T03:44:05.144Z,7.40
2019-02-09T03:45:13.056Z,7.30
2019-02-09T03:46:17.811Z,7.30
2019-02-09T03:47:22.261Z,7.30
2019-02-09T03:48:26.671Z,7.40
2019-02-09T03:49:31.024Z,7.40
2019-02-09T03:50:35.514Z,7.40
2019-02-09T03:51:40.156Z,7.50
2019-02-09T03:52:44.547Z,7.50
2019-02-09T03:53:48.903Z,7.50
2019-02-09T03:54:53.327Z,7.50
2019-02-09T03:55:57.768Z,7.60
2019-02-09T03:57:02.204Z,7.60
2019-02-09T03:58:06.624Z,7.60
2019-02-09T03:59:11.247Z,7.50
2019-02-09T04:00:23.618Z,7.50
2019-02-09T04:01:28.054Z,7.50
2019-02-09T04:02:32.426Z,7.50
2019-02-09T04:03:36.923Z,7.60
2019-02-09T04:04:41.445Z,7.60
2019-02-09T04:05:46.162Z,7.60
2019-02-09T04:06:50.613Z,7.60
2019-02-09T04:07:55.292Z,7.60
2019-02-09T04:09:00.016Z,7.60
2019-02-09T04:10:06.069Z,7.60
2019-02-09T04:11:10.480Z,7.60
2019-02-09T04:12:14.894Z,7.60
2019-02-09T04:13:19.268Z,7.70
2019-02-09T04:14:23.671Z,7.60
2019-02-09T04:15:28.519Z,7.70
2019-02-09T04:16:32.912Z,7.70
2019-02-09T04:17:37.378Z,7.70
2019-02-09T04:18:41.788Z,7.70
2019-02-09T04:19:46.124Z,7.70
2019-02-09T04:20:50.500Z,7.70
2019-02-09T04:21:54.952Z,7.70
2019-02-09T04:22:59.336Z,7.70
2019-02-09T04:24:03.661Z,7.80
2019-02-09T04:25:08.660Z,7.80
2019-02-09T04:26:13.083Z,7.80
2019-02-09T04:27:17.565Z,7.80
2019-02-09T04:28:22.069Z,7.80
2019-02-09T04:29:26.485Z,7.80
2019-02-09T04:30:31.818Z,7.80
2019-02-09T04:31:36.236Z,7.80
2019-02-09T04:32:41.155Z,7.80
2019-02-09T04:33:45.676Z,7.90
2019-02-09T04:34:50.028Z,7.90
2019-02-09T04:35:54.463Z,7.90
2019-02-09T04:36:58.819Z,7.90
2019-02-09T04:38:03.273Z,8.00
2019-02-09T04:39:08.140Z,8.00
2019-02-09T04:40:14.505Z,8.00
2019-02-09T04:41:18.973Z,8.00
2019-02-09T04:42:23.830Z,8.00
2019-02-09T04:43:28.173Z,8.00
2019-02-09T04:44:32.543Z,8.00
2019-02-09T04:45:36.917Z,8.00
2019-02-09T04:46:41.598Z,8.00
2019-02-09T04:47:46.063Z,8.00
2019-02-09T04:48:50.478Z,8.00
2019-02-09T04:49:54.874Z,8.00
2019-02-09T04:50:59.206Z,8.00
2019-02-09T04:52:03.574Z,8.00
2019-02-09T04:53:07.948Z,8.00
2019-02-09T04:54:12.338Z,8.00
2019-02-09T04:55:21.511Z,8.00
2019-02-09T04:56:25.873Z,8.00
2019-02-09T04:57:30.256Z,8.00
2019-02-09T04:58:34.656Z,8.00
2019-02-09T04:59:39.136Z,8.00
2019-02-09T05:00:43.628Z,7.90
2019-02-09T05:01:48.076Z,8.00
2019-02-09T05:02:52.870Z,8.00
2019-02-09T05:03:57.337Z,8.00
2019-02-09T05:05:01.733Z,7.90
2019-02-09T05:06:06.244Z,8.00
2019-02-09T05:07:10.749Z,8.00
2019-02-09T05:08:15.224Z,8.00
2019-02-09T05:09:19.870Z,7.90
2019-02-09T05:10:24.346Z,7.90
2019-02-09T05:11:28.820Z,7.80
2019-02-09T05:12:33.271Z,7.80
2019-02-09T05:13:40.730Z,7.80
2019-02-09T05:14:45.228Z,7.90
2019-02-09T05:15:49.749Z,7.90
2019-02-09T05:16:54.235Z,7.80
2019-02-09T05:17:58.640Z,7.80
2019-02-09T05:19:03.031Z,7.80
2019-02-09T05:20:10.529Z,7.80
2019-02-09T05:21:14.990Z,7.80
2019-02-09T05:22:19.468Z,7.90
2019-02-09T05:23:23.872Z,7.90
2019-02-09T05:24:28.387Z,7.90
2019-02-09T05:25:32.832Z,7.90
2019-02-09T05:26:37.173Z,7.90
2019-02-09T05:27:41.523Z,7.90
2019-02-09T05:28:45.869Z,7.80
2019-02-09T05:29:50.354Z,7.80
2019-02-09T05:30:55.875Z,7.90
2019-02-09T05:32:00.230Z,7.80
2019-02-09T05:33:04.803Z,7.80
2019-02-09T05:34:09.364Z,7.80
2019-02-09T05:35:14.128Z,7.80
2019-02-09T05:36:18.655Z,7.80
2019-02-09T05:37:23.131Z,7.70
2019-02-09T05:38:27.522Z,7.60
2019-02-09T05:39:33.784Z,7.50
2019-02-09T05:40:38.112Z,7.50
2019-02-09T05:41:42.556Z,7.40
2019-02-09T05:42:46.985Z,7.40
2019-02-09T05:43:51.422Z,7.40
2019-02-09T05:44:55.907Z,7.40
2019-02-09T05:46:00.324Z,7.50
2019-02-09T05:47:04.950Z,7.50
2019-02-09T05:48:09.401Z,7.50
2019-02-09T05:49:14.341Z,7.50
2019-02-09T05:50:19.293Z,7.50
2019-02-09T05:51:23.978Z,7.40
2019-02-09T05:52:28.353Z,7.40
2019-02-09T05:53:32.736Z,7.40
2019-02-09T05:54:37.781Z,7.30
2019-02-09T05:55:42.549Z,7.30
2019-02-09T05:56:47.094Z,7.30
2019-02-09T05:57:51.928Z,7.40
2019-02-09T05:58:56.720Z,7.40
2019-02-09T06:00:01.128Z,7.50
2019-02-09T06:01:05.641Z,7.40
2019-02-09T06:02:10.104Z,7.40
2019-02-09T06:03:14.818Z,7.40
2019-02-09T06:04:19.442Z,7.40
2019-02-09T06:05:24.384Z,7.40
2019-02-09T06:06:29.183Z,7.30
2019-02-09T06:07:33.789Z,7.40
2019-02-09T06:08:38.186Z,7.40
2019-02-09T06:09:42.708Z,7.50
2019-02-09T06:10:47.255Z,7.50
2019-02-09T06:11:51.658Z,7.50
2019-02-09T06:12:56.329Z,7.50
2019-02-09T06:14:00.951Z,7.60
2019-02-09T06:15:06.393Z,7.60
2019-02-09T06:16:11.142Z,7.70
2019-02-09T06:17:15.921Z,7.70
2019-02-09T06:18:20.848Z,7.70
2019-02-09T06:19:25.340Z,7.70
2019-02-09T06:20:30.095Z,7.70
2019-02-09T06:21:34.603Z,7.80
2019-02-09T06:22:39.314Z,7.80
2019-02-09T06:23:43.631Z,7.80
2019-02-09T06:24:49.995Z,7.80
2019-02-09T06:25:54.467Z,7.80
2019-02-09T06:26:58.846Z,7.80
2019-02-09T06:28:03.402Z,7.80
2019-02-09T06:29:07.846Z,7.80
2019-02-09T06:30:15.375Z,7.70
2019-02-09T06:31:20.161Z,7.70
2019-02-09T06:32:25.442Z,7.70
2019-02-09T06:33:30.460Z,7.80
2019-02-09T06:34:35.292Z,7.80
2019-02-09T06:35:42.536Z,7.80
2019-02-09T06:36:47.139Z,7.90
2019-02-09T06:37:51.502Z,7.90
2019-02-09T06:38:56.092Z,7.80
2019-02-09T06:40:00.739Z,7.90
2019-02-09T06:41:05.387Z,7.90
2019-02-09T06:42:10.222Z,7.90
2019-02-09T06:43:14.807Z,7.90
2019-02-09T06:44:21.697Z,7.90
2019-02-09T06:45:26.289Z,7.90
2019-02-09T06:46:30.908Z,7.90
2019-02-09T06:47:35.325Z,7.90
2019-02-09T06:48:39.737Z,7.90
2019-02-09T06:49:44.186Z,7.90
2019-02-09T06:50:49.017Z,7.90
2019-02-09T06:51:53.483Z,7.90
2019-02-09T06:52:57.945Z,7.90
2019-02-09T06:54:02.691Z,7.90
2019-02-09T06:55:08.598Z,7.90
2019-02-09T06:56:13.074Z,7.90
2019-02-09T06:57:17.914Z,7.90
2019-02-09T06:58:22.497Z,7.90
2019-02-09T06:59:27.049Z,7.90
2019-02-09T07:00:31.573Z,7.80
2019-02-09T07:01:35.978Z,7.80
2019-02-09T07:02:40.480Z,7.80
2019-02-09T07:03:44.960Z,7.80
2019-02-09T07:04:49.366Z,7.70
2019-02-09T07:05:53.778Z,7.70
2019-02-09T07:06:58.456Z,7.70
2019-02-09T07:08:03.030Z,7.70
2019-02-09T07:09:09.510Z,7.70
2019-02-09T07:10:15.992Z,7.80
2019-02-09T07:11:20.458Z,7.80
2019-02-09T07:12:25.065Z,7.80
2019-02-09T07:13:29.767Z,7.70
2019-02-09T07:14:34.178Z,7.70
2019-02-09T07:15:38.856Z,7.70
2019-02-09T07:16:43.817Z,7.70
2019-02-09T07:17:48.330Z,7.70
2019-02-09T07:18:52.988Z,7.80
2019-02-09T07:19:57.544Z,7.80
2019-02-09T07:21:02.031Z,7.80
2019-02-09T07:22:09.812Z,7.80
2019-02-09T07:23:14.600Z,7.80
2019-02-09T07:24:19.151Z,7.90
2019-02-09T07:25:25.587Z,7.90
2019-02-09T07:26:30.624Z,8.00
2019-02-09T07:27:34.980Z,8.00
2019-02-09T07:28:39.502Z,8.00
2019-02-09T07:29:44.131Z,8.00
2019-02-09T07:30:48.593Z,8.00
2019-02-09T07:31:56.594Z,8.00
2019-02-09T07:33:00.380Z,8.00
2019-02-09T07:34:04.953Z,7.90
2019-02-09T07:35:11.283Z,7.90
2019-02-09T07:36:16.651Z,7.90
2019-02-09T07:37:21.225Z,7.90
2019-02-09T07:38:28.433Z,7.90
2019-02-09T07:39:32.917Z,8.00
2019-02-09T07:40:37.351Z,8.00
2019-02-09T07:41:41.995Z,8.10
2019-02-09T07:42:46.817Z,8.10
2019-02-09T07:43:51.165Z,8.10
2019-02-09T07:44:55.931Z,8.10
2019-02-09T07:46:00.440Z,8.10
2019-02-09T07:47:05.140Z,8.20
2019-02-09T07:48:10.172Z,8.20
2019-02-09T07:49:14.713Z,8.20
2019-02-09T07:50:20.370Z,8.30
2019-02-09T07:51:24.842Z,8.30
2019-02-09T07:52:29.403Z,8.30
2019-02-09T07:53:33.773Z,8.30
2019-02-09T07:54:38.352Z,8.30
2019-02-09T07:55:43.463Z,8.30
2019-02-09T07:56:48.094Z,8.40
2019-02-09T07:57:53.232Z,8.40
2019-02-09T07:58:58.597Z,8.40
2019-02-09T08:00:03.160Z,8.40
2019-02-09T08:01:07.745Z,8.40
2019-02-09T08:02:14.437Z,8.40
2019-02-09T08:03:19.400Z,8.50
2019-02-09T08:04:23.831Z,8.50
2019-02-09T08:05:29.701Z,8.40
2019-02-09T08:06:34.098Z,8.50
2019-02-09T08:07:38.497Z,8.40
2019-02-09T08:08:43.387Z,8.40
2019-02-09T08:09:47.863Z,8.40
2019-02-09T08:10:52.374Z,8.40
2019-02-09T08:11:56.852Z,8.50
2019-02-09T08:13:01.555Z,8.50
2019-02-09T08:14:06.501Z,8.60
2019-02-09T08:15:15.007Z,8.60
2019-02-09T08:16:19.574Z,8.60
2019-02-09T08:17:24.186Z,8.60
2019-02-09T08:18:29.094Z,8.70
2019-02-09T08:19:33.930Z,8.70
2019-02-09T08:20:38.471Z,8.80
2019-02-09T08:21:42.920Z,8.70
2019-02-09T08:22:48.361Z,8.80
2019-02-09T08:23:53.304Z,8.70
2019-02-09T08:24:58.130Z,8.80
2019-02-09T08:26:02.631Z,8.70
2019-02-09T08:27:07.227Z,8.70
2019-02-09T08:28:12.221Z,8.80
2019-02-09T08:29:16.631Z,8.80
2019-02-09T08:30:26.543Z,8.80
2019-02-09T08:31:31.097Z,8.80
2019-02-09T08:32:35.936Z,8.90
2019-02-09T08:33:40.450Z,8.90
2019-02-09T08:34:44.914Z,8.90
2019-02-09T08:35:49.546Z,8.90
2019-02-09T08:36:53.972Z,9.00
2019-02-09T08:37:58.535Z,9.00
2019-02-09T08:39:03.171Z,9.00
2019-02-09T08:40:08.770Z,9.10
2019-02-09T08:41:13.518Z,9.20
2019-02-09T08:42:18.041Z,9.30
2019-02-09T08:43:23.121Z,9.50
2019-02-09T08:44:27.770Z,9.60
2019-02-09T08:45:32.193Z,9.70
2019-02-09T08:46:36.785Z,9.70
2019-02-09T08:47:41.234Z,9.70
2019-02-09T08:48:45.659Z,9.70
2019-02-09T08:49:50.241Z,9.80
2019-02-09T08:51:01.397Z,9.90
2019-02-09T08:52:06.257Z,9.90
2019-02-09T08:53:11.630Z,10.00
2019-02-09T08:54:16.084Z,9.90
2019-02-09T08:55:20.646Z,9.90
2019-02-09T08:56:25.381Z,9.90
2019-02-09T08:57:30.023Z,9.90
2019-02-09T08:58:34.554Z,9.90
2019-02-09T08:59:39.442Z,9.90
2019-02-09T09:00:44.059Z,9.90
2019-02-09T09:01:48.596Z,9.80
2019-02-09T09:02:53.522Z,9.80
2019-02-09T09:04:01.237Z,9.80
2019-02-09T09:05:09.683Z,9.80
2019-02-09T09:06:14.020Z,9.80
2019-02-09T09:07:18.795Z,9.80
2019-02-09T09:08:23.415Z,9.70
2019-02-09T09:09:28.595Z,9.70
2019-02-09T09:10:33.746Z,9.70
2019-02-09T09:11:38.347Z,9.70
2019-02-09T09:12:43.177Z,9.80
2019-02-09T09:13:47.749Z,9.80
2019-02-09T09:14:52.389Z,9.90
2019-02-09T09:15:58.097Z,9.90
2019-02-09T09:17:03.115Z,10.00
2019-02-09T09:18:08.170Z,10.00
2019-02-09T09:19:15.528Z,10.00
2019-02-09T09:20:26.536Z,9.90
2019-02-09T09:21:31.365Z,10.00
2019-02-09T09:22:36.027Z,10.00
2019-02-09T09:23:40.510Z,10.00
2019-02-09T09:24:45.073Z,9.90
2019-02-09T09:25:49.560Z,10.00
2019-02-09T09:26:54.001Z,10.00
2019-02-09T09:27:58.866Z,10.10
2019-02-09T09:29:03.314Z,10.20
2019-02-09T09:30:09.846Z,10.20
2019-02-09T09:31:14.387Z,10.30
2019-02-09T09:32:18.797Z,10.40
2019-02-09T09:33:23.710Z,10.60
2019-02-09T09:34:30.638Z,10.70
2019-02-09T09:35:35.190Z,10.80
2019-02-09T09:36:39.866Z,10.90
2019-02-09T09:37:44.682Z,10.90
2019-02-09T09:38:49.583Z,10.80
2019-02-09T09:39:54.049Z,10.80
2019-02-09T09:40:59.988Z,10.80
2019-02-09T09:42:04.724Z,10.70
2019-02-09T09:43:09.355Z,10.60
2019-02-09T09:44:14.225Z,10.50
2019-02-09T09:45:21.484Z,10.50
2019-02-09T09:46:25.925Z,10.50
2019-02-09T09:47:30.412Z,10.50
2019-02-09T09:48:35.243Z,10.60
2019-02-09T09:49:39.831Z,10.50
2019-02-09T09:50:44.383Z,10.50
2019-02-09T09:51:48.894Z,10.50
2019-02-09T09:52:53.469Z,10.40
2019-02-09T09:53:58.093Z,10.40
2019-02-09T09:55:04.449Z,10.30
2019-02-09T09:56:08.650Z,10.20
2019-02-09T09:57:14.676Z,10.20
2019-02-09T09:58:19.596Z,10.00
2019-02-09T09:59:24.570Z,9.80
2019-02-09T10:00:29.644Z,9.80
2019-02-09T10:01:34.320Z,9.70
2019-02-09T10:02:38.936Z,9.60
2019-02-09T10:03:43.370Z,9.50
2019-02-09T10:04:47.854Z,9.40
2019-02-09T10:05:52.375Z,9.40
2019-02-09T10:06:58.981Z,9.50
2019-02-09T10:08:03.442Z,9.50
2019-02-09T10:09:08.965Z,9.50
2019-02-09T10:10:17.164Z,9.50
2019-02-09T10:11:21.632Z,9.50
2019-02-09T10:12:26.161Z,9.50
2019-02-09T10:13:30.612Z,9.60
2019-02-09T10:14:35.287Z,9.60
2019-02-09T10:15:39.904Z,9.70
2019-02-09T10:16:44.296Z,9.70
2019-02-09T10:17:48.953Z,9.80
2019-02-09T10:18:53.824Z,9.90
2019-02-09T10:19:58.851Z,9.90
2019-02-09T10:21:03.545Z,9.90
2019-02-09T10:22:08.162Z,9.90
2019-02-09T10:23:15.708Z,9.90
2019-02-09T10:24:20.899Z,10.00
2019-02-09T10:25:25.595Z,10.00
2019-02-09T10:26:30.252Z,10.00
2019-02-09T10:27:34.860Z,9.90
2019-02-09T10:28:39.822Z,10.00
2019-02-09T10:29:44.577Z,10.00
2019-02-09T10:30:49.784Z,10.10
2019-02-09T10:31:54.586Z,10.20
2019-02-09T10:32:59.708Z,10.30
2019-02-09T10:34:04.376Z,10.40
2019-02-09T10:35:15.825Z,10.60
2019-02-09T10:36:16.170Z,10.70
2019-02-09T10:37:20.692Z,10.90
2019-02-09T10:38:25.334Z,11.00
2019-02-09T10:39:29.810Z,11.10
2019-02-09T10:40:34.971Z,11.10
2019-02-09T10:41:39.445Z,11.20
2019-02-09T10:42:43.939Z,11.30
2019-02-09T10:43:48.479Z,11.40
2019-02-09T10:44:53.090Z,11.50
2019-02-09T10:45:58.084Z,11.50
2019-02-09T10:47:02.562Z,11.50
2019-02-09T10:48:08.205Z,11.50
2019-02-09T10:49:12.740Z,11.50
2019-02-09T10:50:20.311Z,11.50
2019-02-09T10:51:25.225Z,11.50
2019-02-09T10:52:30.045Z,11.50
2019-02-09T10:53:34.630Z,11.50
2019-02-09T10:54:39.828Z,11.50
2019-02-09T10:55:45.227Z,11.40
2019-02-09T10:56:49.865Z,11.40
2019-02-09T10:57:54.495Z,11.40
2019-02-09T10:59:02.116Z,11.40
2019-02-09T11:00:12.756Z,11.40
2019-02-09T11:01:21.993Z,11.50
2019-02-09T11:02:26.823Z,11.40
2019-02-09T11:03:31.690Z,11.40
2019-02-09T11:04:36.606Z,11.40
2019-02-09T11:05:41.299Z,11.40
2019-02-09T11:06:45.856Z,11.40
2019-02-09T11:07:50.626Z,11.30
2019-02-09T11:08:56.046Z,11.20
2019-02-09T11:10:00.968Z,11.20
2019-02-09T11:11:05.773Z,11.20
2019-02-09T11:12:12.516Z,11.30
2019-02-09T11:13:26.001Z,11.30
2019-02-09T11:14:30.788Z,11.40
2019-02-09T11:15:35.482Z,11.40
2019-02-09T11:16:40.084Z,11.30
2019-02-09T11:17:44.644Z,11.40
2019-02-09T11:18:49.364Z,11.30
2019-02-09T11:19:53.871Z,11.30
2019-02-09T11:20:58.524Z,11.30
2019-02-09T11:22:03.057Z,11.30
2019-02-09T11:23:07.757Z,11.30
2019-02-09T11:24:13.292Z,11.30
2019-02-09T11:25:18.350Z,11.30
2019-02-09T11:26:22.892Z,11.30
2019-02-09T11:27:28.256Z,11.40
2019-02-09T11:28:35.836Z,11.40
2019-02-09T11:29:40.273Z,11.40
2019-02-09T11:30:44.831Z,11.40
2019-02-09T11:31:49.450Z,11.40
2019-02-09T11:33:01.689Z,11.40
2019-02-09T11:34:00.343Z,11.30
2019-02-09T11:35:05.179Z,11.30
2019-02-09T11:36:09.710Z,11.40
2019-02-09T11:37:14.296Z,11.40
2019-02-09T11:38:18.804Z,11.50
2019-02-09T11:39:23.272Z,11.50
2019-02-09T11:40:27.969Z,11.40
2019-02-09T11:41:32.426Z,11.40
2019-02-09T11:42:36.959Z,11.40
2019-02-09T11:43:41.383Z,11.40
2019-02-09T11:44:46.216Z,11.30
2019-02-09T11:45:50.677Z,11.50
2019-02-09T11:46:55.272Z,11.30
2019-02-09T11:47:59.893Z,11.30
2019-02-09T11:49:04.333Z,11.20
2019-02-09T11:50:09.902Z,11.20
2019-02-09T11:51:14.723Z,11.10
2019-02-09T11:52:19.219Z,11.10
2019-02-09T11:53:23.809Z,11.00
2019-02-09T11:54:28.480Z,11.00
2019-02-09T11:55:33.064Z,11.00
2019-02-09T11:56:37.634Z,11.00
2019-02-09T11:57:42.372Z,11.00
2019-02-09T11:58:46.910Z,11.00
2019-02-09T11:59:51.375Z,11.00
2019-02-09T12:00:55.806Z,11.00
2019-02-09T12:02:00.983Z,11.10
2019-02-09T12:03:14.758Z,11.10
2019-02-09T12:04:11.995Z,11.10
2019-02-09T12:05:16.475Z,11.10
2019-02-09T12:06:21.076Z,11.10
2019-02-09T12:07:25.452Z,11.00
2019-02-09T12:08:29.977Z,11.00
2019-02-09T12:09:34.454Z,11.00
2019-02-09T12:10:38.870Z,11.10
2019-02-09T12:11:43.351Z,11.00
2019-02-09T12:12:48.144Z,11.10
2019-02-09T12:13:55.449Z,11.00
2019-02-09T12:14:59.124Z,11.00
2019-02-09T12:16:03.685Z,11.10
2019-02-09T12:17:09.264Z,11.10
2019-02-09T12:18:16.411Z,11.20
2019-02-09T12:19:21.082Z,11.10
2019-02-09T12:20:25.537Z,11.20
2019-02-09T12:21:30.261Z,11.20
2019-02-09T12:22:36.048Z,11.20
2019-02-09T12:23:40.621Z,11.30
2019-02-09T12:24:45.102Z,11.30
2019-02-09T12:25:49.645Z,11.40
2019-02-09T12:26:54.142Z,11.40
2019-02-09T12:27:58.621Z,11.50
2019-02-09T12:29:03.676Z,11.50
2019-02-09T12:30:10.784Z,11.50
2019-02-09T12:31:15.222Z,11.50
2019-02-09T12:32:19.830Z,11.60
2019-02-09T12:33:24.358Z,11.60
2019-02-09T12:34:28.815Z,11.60
2019-02-09T12:35:33.426Z,11.60
2019-02-09T12:36:37.907Z,11.60
2019-02-09T12:37:42.472Z,11.70
2019-02-09T12:38:46.942Z,11.60
2019-02-09T12:39:51.417Z,11.60
2019-02-09T12:40:56.144Z,11.60
2019-02-09T12:42:00.481Z,11.50
2019-02-09T12:43:05.047Z,11.60
2019-02-09T12:44:09.612Z,11.60
2019-02-09T12:45:15.466Z,11.70
2019-02-09T12:46:20.217Z,11.70
2019-02-09T12:47:24.682Z,11.70
2019-02-09T12:48:29.165Z,11.60
2019-02-09T12:49:33.780Z,11.60
2019-02-09T12:50:38.318Z,11.50
2019-02-09T12:51:42.738Z,11.50
2019-02-09T12:52:47.186Z,11.40
2019-02-09T12:53:51.619Z,11.30
2019-02-09T12:54:56.168Z,11.30
2019-02-09T12:56:00.711Z,11.10
2019-02-09T12:57:05.450Z,11.10
2019-02-09T12:58:09.962Z,11.10
2019-02-09T12:59:15.230Z,11.00
2019-02-09T13:00:22.648Z,11.10
2019-02-09T13:01:27.502Z,11.10
2019-02-09T13:02:31.962Z,11.10
2019-02-09T13:03:39.243Z,11.10
2019-02-09T13:04:43.615Z,11.20
2019-02-09T13:05:48.144Z,11.20
2019-02-09T13:06:53.198Z,11.30
2019-02-09T13:07:57.684Z,11.30
2019-02-09T13:09:02.619Z,11.30
2019-02-09T13:10:07.712Z,11.30
2019-02-09T13:11:12.522Z,11.30
2019-02-09T13:12:17.088Z,11.20
2019-02-09T13:13:21.851Z,11.20
2019-02-09T13:14:26.438Z,11.20
2019-02-09T13:15:31.138Z,11.10
2019-02-09T13:16:38.709Z,11.00
2019-02-09T13:17:43.509Z,10.90
2019-02-09T13:18:47.991Z,10.70
2019-02-09T13:19:52.395Z,10.60
2019-02-09T13:20:56.948Z,10.60
2019-02-09T13:22:01.410Z,10.40
2019-02-09T13:23:07.224Z,10.30
2019-02-09T13:24:11.899Z,10.10
2019-02-09T13:25:16.614Z,10.00
2019-02-09T13:26:21.428Z,9.80
2019-02-09T13:27:26.499Z,9.80
2019-02-09T13:28:30.873Z,9.80
2019-02-09T13:29:35.301Z,9.80
2019-02-09T13:30:40.047Z,9.80
2019-02-09T13:31:44.467Z,9.90
2019-02-09T13:32:49.190Z,9.90
2019-02-09T13:33:53.620Z,10.00
2019-02-09T13:34:58.288Z,10.00
2019-02-09T13:36:02.712Z,10.00
2019-02-09T13:37:07.230Z,10.00
2019-02-09T13:38:30.281Z,10.00
2019-02-09T13:39:46.116Z,10.00
2019-02-09T13:41:02.445Z,10.10
2019-02-09T13:42:18.711Z,10.00
2019-02-09T13:43:34.678Z,10.00
2019-02-09T13:44:50.825Z,10.10
2019-02-09T13:46:06.822Z,10.10
2019-02-09T13:47:23.057Z,10.10
2019-02-09T13:48:38.950Z,10.10
2019-02-09T13:49:54.821Z,10.10
2019-02-09T13:51:10.815Z,10.10
2019-02-09T13:52:29.027Z,10.00
2019-02-09T13:53:45.651Z,10.00
2019-02-09T13:55:02.361Z,10.00
2019-02-09T13:56:18.071Z,10.00
2019-02-09T13:57:34.030Z,10.00
2019-02-09T13:58:50.183Z,10.10
2019-02-09T14:00:06.512Z,10.10
2019-02-09T14:01:22.601Z,10.20
2019-02-09T14:02:38.899Z,10.30
2019-02-09T14:03:55.369Z,10.30
2019-02-09T14:05:11.470Z,10.30
2019-02-09T14:06:27.407Z,10.40
2019-02-09T14:07:43.519Z,10.40
2019-02-09T14:09:00.072Z,10.50
2019-02-09T14:10:15.821Z,10.60
2019-02-09T14:11:32.136Z,10.60
2019-02-09T14:12:48.561Z,10.60
2019-02-09T14:14:04.447Z,10.60
2019-02-09T14:15:20.446Z,10.60
2019-02-09T14:16:38.682Z,10.60
2019-02-09T14:17:54.383Z,10.60
2019-02-09T14:19:10.830Z,10.60
2019-02-09T14:20:26.989Z,10.50
2019-02-09T14:21:43.138Z,10.50
2019-02-09T14:22:59.195Z,10.40
2019-02-09T14:24:15.462Z,10.40